createdAt,value
2018-09-10T00:00:37.197Z,34.70
2018-09-10T00:01:37.177Z,35.70
2018-09-10T00:02:37.162Z,28.10
2018-09-10T00:03:37.138Z,30.50
2018-09-10T00:04:37.101Z,36.70
2018-09-10T00:05:37.082Z,33.30
2018-09-10T00:06:37.059Z,33.00
2018-09-10T00:07:37.036Z,32.60
2018-09-10T00:08:37.010Z,30.60
2018-09-10T00:09:36.989Z,33.80
2018-09-10T00:10:37.011Z,29.90
2018-09-10T00:11:36.935Z,28.60
2018-09-10T00:12:36.915Z,30.90
2018-09-10T00:13:36.895Z,35.30
2018-09-10T00:14:36.866Z,30.20
2018-09-10T00:15:36.864Z,29.60
2018-09-10T00:16:36.822Z,30.00
2018-09-10T00:17:36.807Z,34.30
2018-09-10T00:18:36.777Z,27.70
2018-09-10T00:19:36.761Z,29.70
2018-09-10T00:21:09.935Z,26.10
2018-09-10T00:21:36.721Z,27.40
2018-09-10T00:22:36.684Z,31.70
2018-09-10T00:23:36.667Z,27.90
2018-09-10T00:24:36.637Z,33.30
2018-09-10T00:25:36.611Z,29.50
2018-09-10T00:26:36.593Z,34.70
2018-09-10T00:27:36.577Z,25.70
2018-09-10T00:28:36.590Z,32.40
2018-09-10T00:29:36.518Z,28.30
2018-09-10T00:30:36.497Z,27.40
2018-09-10T00:31:36.484Z,30.70
2018-09-10T00:32:36.446Z,27.70
2018-09-10T00:33:36.423Z,30.10
2018-09-10T00:34:36.404Z,27.40
2018-09-10T00:35:36.383Z,26.90
2018-09-10T00:36:36.347Z,27.90
2018-09-10T00:37:36.327Z,27.20
2018-09-10T00:38:36.307Z,30.70
2018-09-10T00:39:36.283Z,28.70
2018-09-10T00:40:36.261Z,30.10
2018-09-10T00:41:36.238Z,27.40
2018-09-10T00:42:36.217Z,29.30
2018-09-10T00:43:36.192Z,26.10
2018-09-10T00:44:36.165Z,27.40
2018-09-10T00:45:36.142Z,25.70
2018-09-10T00:46:36.118Z,28.20
2018-09-10T00:47:36.091Z,24.30
2018-09-10T00:48:36.085Z,29.20
2018-09-10T00:49:36.058Z,24.30
2018-09-10T00:50:36.018Z,26.60
2018-09-10T00:51:35.993Z,26.50
2018-09-10T00:52:35.985Z,27.10
2018-09-10T00:53:35.957Z,27.70
2018-09-10T00:54:35.931Z,25.00
2018-09-10T00:55:35.921Z,26.60
2018-09-10T00:56:35.886Z,27.40
2018-09-10T00:57:35.861Z,27.90
2018-09-10T00:58:35.829Z,24.80
2018-09-10T00:59:35.810Z,28.30
2018-09-10T01:00:35.794Z,27.60
2018-09-10T01:01:35.761Z,26.20
2018-09-10T01:02:35.754Z,28.10
2018-09-10T01:03:35.723Z,27.60
2018-09-10T01:04:35.694Z,29.70
2018-09-10T01:05:35.667Z,30.00
2018-09-10T01:06:35.643Z,27.10
2018-09-10T01:07:35.630Z,30.60
2018-09-10T01:08:35.616Z,29.80
2018-09-10T01:09:35.582Z,27.90
2018-09-10T01:10:35.555Z,31.00
2018-09-10T01:11:35.538Z,31.60
2018-09-10T01:12:35.503Z,29.70
2018-09-10T01:13:35.484Z,28.60
2018-09-10T01:14:35.451Z,36.20
2018-09-10T01:15:35.440Z,34.00
2018-09-10T01:16:35.406Z,35.10
2018-09-10T01:17:35.386Z,32.50
2018-09-10T01:18:35.365Z,34.80
2018-09-10T01:19:35.345Z,32.60
2018-09-10T01:20:35.309Z,35.10
2018-09-10T01:21:35.287Z,32.90
2018-09-10T01:22:35.266Z,35.60
2018-09-10T01:23:35.238Z,34.90
2018-09-10T01:24:35.220Z,34.90
2018-09-10T01:25:35.203Z,37.20
2018-09-10T01:26:35.177Z,34.90
2018-09-10T01:27:35.151Z,32.80
2018-09-10T01:28:35.121Z,38.00
2018-09-10T01:29:35.101Z,39.80
2018-09-10T01:30:35.094Z,35.70
2018-09-10T01:31:35.056Z,37.80
2018-09-10T01:32:35.030Z,35.80
2018-09-10T01:33:35.014Z,39.70
2018-09-10T01:34:34.987Z,35.70
2018-09-10T01:35:34.962Z,36.10
2018-09-10T01:36:34.938Z,35.10
2018-09-10T01:37:34.925Z,35.90
2018-09-10T01:38:34.895Z,34.00
2018-09-10T01:39:34.860Z,34.70
2018-09-10T01:40:34.838Z,33.80
2018-09-10T01:41:34.833Z,35.10
2018-09-10T01:42:34.796Z,35.90
2018-09-10T01:43:34.771Z,35.50
2018-09-10T01:44:34.745Z,36.50
2018-09-10T01:45:34.727Z,36.60
2018-09-10T01:46:34.707Z,30.70
2018-09-10T01:47:34.680Z,32.80
2018-09-10T01:48:34.663Z,36.40
2018-09-10T01:49:34.636Z,35.60
2018-09-10T01:50:34.604Z,33.60
2018-09-10T01:51:34.579Z,34.10
2018-09-10T01:52:34.574Z,35.90
2018-09-10T01:53:34.540Z,33.50
2018-09-10T01:54:34.504Z,36.50
2018-09-10T01:55:34.485Z,32.60
2018-09-10T01:56:34.461Z,31.10
2018-09-10T01:57:34.451Z,32.30
2018-09-10T01:58:34.413Z,37.00
2018-09-10T01:59:34.391Z,32.80
2018-09-10T02:00:34.365Z,31.70
2018-09-10T02:01:34.342Z,31.70
2018-09-10T02:02:34.419Z,33.50
2018-09-10T02:03:34.296Z,33.50
2018-09-10T02:04:34.288Z,31.60
2018-09-10T02:05:34.244Z,34.70
2018-09-10T02:06:34.226Z,30.80
2018-09-10T02:07:34.198Z,29.10
2018-09-10T02:08:34.176Z,27.40
2018-09-10T02:09:34.157Z,27.40
2018-09-10T02:10:34.122Z,28.80
2018-09-10T02:11:34.100Z,28.30
2018-09-10T02:12:34.086Z,27.60
2018-09-10T02:13:34.056Z,28.50
2018-09-10T02:14:34.034Z,29.20
2018-09-10T02:15:34.008Z,29.10
2018-09-10T02:16:33.988Z,28.10
2018-09-10T02:17:33.962Z,29.70
2018-09-10T02:18:33.944Z,30.90
2018-09-10T02:19:33.901Z,27.50
2018-09-10T02:20:33.889Z,29.20
2018-09-10T02:21:33.864Z,26.80
2018-09-10T02:23:07.055Z,27.30
2018-09-10T02:23:33.830Z,29.80
2018-09-10T02:24:33.797Z,27.70
2018-09-10T02:25:33.773Z,27.30
2018-09-10T02:26:33.753Z,27.50
2018-09-10T02:27:33.845Z,24.70
2018-09-10T02:28:33.698Z,22.80
2018-09-10T02:29:33.660Z,27.20
2018-09-10T02:30:33.652Z,25.10
2018-09-10T02:31:33.624Z,23.20
2018-09-10T02:32:33.611Z,26.30
2018-09-10T02:33:33.582Z,27.50
2018-09-10T02:34:33.553Z,26.20
2018-09-10T02:35:33.517Z,24.00
2018-09-10T02:36:33.512Z,24.10
2018-09-10T02:37:33.485Z,22.80
2018-09-10T02:38:33.513Z,24.20
2018-09-10T02:39:33.445Z,26.70
2018-09-10T02:40:33.426Z,25.40
2018-09-10T02:41:33.399Z,25.60
2018-09-10T02:42:33.371Z,26.20
2018-09-10T02:43:33.345Z,24.80
2018-09-10T02:44:33.325Z,30.00
2018-09-10T02:45:33.298Z,26.10
2018-09-10T02:46:33.273Z,26.90
2018-09-10T02:47:33.252Z,24.80
2018-09-10T02:48:33.224Z,26.00
2018-09-10T02:49:33.204Z,24.50
2018-09-10T02:50:33.184Z,27.80
2018-09-10T02:51:33.153Z,25.00
2018-09-10T02:52:33.135Z,28.90
2018-09-10T02:53:33.108Z,26.50
2018-09-10T02:54:33.254Z,29.60
2018-09-10T02:55:33.067Z,30.20
2018-09-10T02:56:33.039Z,25.70
2018-09-10T02:57:33.013Z,27.60
2018-09-10T02:58:32.996Z,31.80
2018-09-10T02:59:32.970Z,28.80
2018-09-10T03:00:32.949Z,25.90
2018-09-10T03:01:32.921Z,30.30
2018-09-10T03:02:32.895Z,29.10
2018-09-10T03:03:32.868Z,27.00
2018-09-10T03:04:32.851Z,26.30
2018-09-10T03:05:32.831Z,29.00
2018-09-10T03:06:32.799Z,33.80
2018-09-10T03:07:32.785Z,31.60
2018-09-10T03:08:32.752Z,28.00
2018-09-10T03:09:32.734Z,29.40
2018-09-10T03:10:32.707Z,30.00
2018-09-10T03:11:32.683Z,33.10
2018-09-10T03:12:32.645Z,35.60
2018-09-10T03:13:32.636Z,32.20
2018-09-10T03:14:32.618Z,34.90
2018-09-10T03:15:32.583Z,32.70
2018-09-10T03:16:32.560Z,38.20
2018-09-10T03:17:32.521Z,36.70
2018-09-10T03:18:32.514Z,36.60
2018-09-10T03:19:32.482Z,33.70
2018-09-10T03:20:32.469Z,29.90
2018-09-10T03:21:32.447Z,34.70
2018-09-10T03:22:32.420Z,33.80
2018-09-10T03:23:32.504Z,36.00
2018-09-10T03:24:32.370Z,37.50
2018-09-10T03:25:32.352Z,34.00
2018-09-10T03:26:32.322Z,34.50
2018-09-10T03:27:32.301Z,32.60
2018-09-10T03:28:32.282Z,34.00
2018-09-10T03:29:32.257Z,35.80
2018-09-10T03:30:32.234Z,35.00
2018-09-10T03:31:32.213Z,34.20
2018-09-10T03:32:32.180Z,32.80
2018-09-10T03:33:32.223Z,34.60
2018-09-10T03:34:32.135Z,36.90
2018-09-10T03:35:32.108Z,31.40
2018-09-10T03:36:32.087Z,36.00
2018-09-10T03:37:32.048Z,32.50
2018-09-10T03:38:32.063Z,35.00
2018-09-10T03:39:32.013Z,32.20
2018-09-10T03:40:32.000Z,35.20
2018-09-10T03:41:31.971Z,37.40
2018-09-10T03:42:31.946Z,32.60
2018-09-10T03:43:31.921Z,33.60
2018-09-10T03:44:31.896Z,39.50
2018-09-10T03:45:31.874Z,38.90
2018-09-10T03:46:31.854Z,39.70
2018-09-10T03:47:31.821Z,36.00
2018-09-10T03:48:31.808Z,35.30
2018-09-10T03:49:31.778Z,40.10
2018-09-10T03:50:31.751Z,37.30
2018-09-10T03:51:31.729Z,39.80
2018-09-10T03:52:31.691Z,42.20
2018-09-10T03:53:31.679Z,38.20
2018-09-10T03:54:31.656Z,40.90
2018-09-10T03:55:31.634Z,38.60
2018-09-10T03:56:31.610Z,40.20
2018-09-10T03:57:31.588Z,36.50
2018-09-10T03:59:04.754Z,38.00
2018-09-10T03:59:31.539Z,38.60
2018-09-10T04:00:31.501Z,40.80
2018-09-10T04:01:31.486Z,39.30
2018-09-10T04:02:31.464Z,39.80
2018-09-10T04:03:31.441Z,38.60
2018-09-10T04:04:31.413Z,39.00
2018-09-10T04:05:31.378Z,41.90
2018-09-10T04:06:31.371Z,43.50
2018-09-10T04:07:31.339Z,37.00
2018-09-10T04:08:31.321Z,40.60
2018-09-10T04:09:31.297Z,43.60
2018-09-10T04:10:31.278Z,41.50
2018-09-10T04:11:31.233Z,39.30
2018-09-10T04:12:31.206Z,39.10
2018-09-10T04:13:31.185Z,38.40
2018-09-10T04:14:31.174Z,46.30
2018-09-10T04:15:31.150Z,36.30
2018-09-10T04:16:31.113Z,38.40
2018-09-10T04:17:31.099Z,41.80
2018-09-10T04:18:31.075Z,41.50
2018-09-10T04:19:31.048Z,38.50
2018-09-10T04:20:31.018Z,34.00
2018-09-10T04:21:30.989Z,34.80
2018-09-10T04:22:30.967Z,38.30
2018-09-10T04:23:30.956Z,37.50
2018-09-10T04:24:30.933Z,35.70
2018-09-10T04:25:30.912Z,35.70
2018-09-10T04:26:30.881Z,36.00
2018-09-10T04:27:30.860Z,33.10
2018-09-10T04:28:30.839Z,32.20
2018-09-10T04:29:30.812Z,35.20
2018-09-10T04:30:30.794Z,34.30
2018-09-10T04:31:30.759Z,34.10
2018-09-10T04:32:30.737Z,31.80
2018-09-10T04:33:30.715Z,34.60
2018-09-10T04:34:30.695Z,40.80
2018-09-10T04:35:30.648Z,37.50
2018-09-10T04:36:30.634Z,35.10
2018-09-10T04:37:30.615Z,37.20
2018-09-10T04:38:30.591Z,35.60
2018-09-10T04:39:30.569Z,39.40
2018-09-10T04:40:30.541Z,35.40
2018-09-10T04:41:30.503Z,35.40
2018-09-10T04:42:30.493Z,35.20
2018-09-10T04:43:30.472Z,34.10
2018-09-10T04:44:30.452Z,32.40
2018-09-10T04:45:30.417Z,34.00
2018-09-10T04:46:30.398Z,35.70
2018-09-10T04:47:30.374Z,33.70
2018-09-10T04:48:30.348Z,34.20
2018-09-10T04:49:30.376Z,33.60
2018-09-10T04:50:30.286Z,35.20
2018-09-10T04:51:30.274Z,32.90
2018-09-10T04:52:30.256Z,31.80
2018-09-10T04:53:30.228Z,30.60
2018-09-10T04:54:30.209Z,34.10
2018-09-10T04:55:30.163Z,32.10
2018-09-10T04:56:30.154Z,32.60
2018-09-10T04:57:30.127Z,32.30
2018-09-10T04:58:30.112Z,27.60
2018-09-10T04:59:30.085Z,30.20
2018-09-10T05:00:30.055Z,33.80
2018-09-10T05:01:30.030Z,29.60
2018-09-10T05:02:29.992Z,25.80
2018-09-10T05:03:29.982Z,31.40
2018-09-10T05:04:30.012Z,27.40
2018-09-10T05:05:29.936Z,30.90
2018-09-10T05:06:29.897Z,33.00
2018-09-10T05:07:29.888Z,27.00
2018-09-10T05:08:29.869Z,32.40
2018-09-10T05:09:29.824Z,29.70
2018-09-10T05:10:29.811Z,30.70
2018-09-10T05:11:29.790Z,29.10
2018-09-10T05:12:29.767Z,29.90
2018-09-10T05:13:29.830Z,28.10
2018-09-10T05:14:29.719Z,27.50
2018-09-10T05:15:29.679Z,28.10
2018-09-10T05:16:29.669Z,29.90
2018-09-10T05:17:29.631Z,28.40
2018-09-10T05:18:29.599Z,28.20
2018-09-10T05:19:29.598Z,30.50
2018-09-10T05:20:29.555Z,30.80
2018-09-10T05:21:29.547Z,30.00
2018-09-10T05:22:29.519Z,32.50
2018-09-10T05:23:29.481Z,29.00
2018-09-10T05:24:29.470Z,31.60
2018-09-10T05:25:29.457Z,31.10
2018-09-10T05:26:29.429Z,28.20
2018-09-10T05:27:29.404Z,27.10
2018-09-10T05:28:29.375Z,28.90
2018-09-10T05:29:29.341Z,25.30
2018-09-10T05:30:29.335Z,31.20
2018-09-10T05:31:29.303Z,29.80
2018-09-10T05:32:29.279Z,29.70
2018-09-10T05:33:29.254Z,27.50
2018-09-10T05:34:29.233Z,29.50
2018-09-10T05:35:29.211Z,30.20
2018-09-10T05:36:29.185Z,32.30
2018-09-10T05:37:29.157Z,28.40
2018-09-10T05:38:29.118Z,27.10
2018-09-10T05:39:29.111Z,24.70
2018-09-10T05:40:29.085Z,28.50
2018-09-10T05:41:29.074Z,28.30
2018-09-10T05:42:29.024Z,30.40
2018-09-10T05:43:28.997Z,27.80
2018-09-10T05:44:28.987Z,26.10
2018-09-10T05:45:28.959Z,27.10
2018-09-10T05:46:28.939Z,26.30
2018-09-10T05:47:28.915Z,29.20
2018-09-10T05:48:28.874Z,25.60
2018-09-10T05:49:28.865Z,26.80
2018-09-10T05:50:28.931Z,27.60
2018-09-10T05:51:28.801Z,30.70
2018-09-10T05:52:28.775Z,30.40
2018-09-10T05:53:28.754Z,28.50
2018-09-10T05:54:28.726Z,25.60
2018-09-10T05:55:28.738Z,26.90
2018-09-10T05:56:28.684Z,26.60
2018-09-10T05:57:28.670Z,27.90
2018-09-10T05:58:28.648Z,25.80
2018-09-10T05:59:28.606Z,27.20
2018-09-10T06:00:28.589Z,26.90
2018-09-10T06:01:28.576Z,28.70
2018-09-10T06:02:28.554Z,28.50
2018-09-10T06:03:28.508Z,29.30
2018-09-10T06:04:28.498Z,30.70
2018-09-10T06:05:28.470Z,30.70
2018-09-10T06:06:28.453Z,28.50
2018-09-10T06:07:28.425Z,28.20
2018-09-10T06:08:28.407Z,29.40
2018-09-10T06:09:28.369Z,27.40
2018-09-10T06:10:28.377Z,27.70
2018-09-10T06:11:28.329Z,26.70
2018-09-10T06:12:28.307Z,28.50
2018-09-10T06:13:28.278Z,28.10
2018-09-10T06:14:28.253Z,25.80
2018-09-10T06:15:28.226Z,31.10
2018-09-10T06:16:28.235Z,26.90
2018-09-10T06:17:28.183Z,29.70
2018-09-10T06:18:28.163Z,22.90
2018-09-10T06:19:28.129Z,23.80
2018-09-10T06:20:28.097Z,25.00
2018-09-10T06:21:28.085Z,24.70
2018-09-10T06:22:28.057Z,28.60
2018-09-10T06:23:28.030Z,20.80
2018-09-10T06:24:27.997Z,23.30
2018-09-10T06:25:27.975Z,22.90
2018-09-10T06:26:27.946Z,21.90
2018-09-10T06:27:27.925Z,21.30
2018-09-10T06:28:27.898Z,23.10
2018-09-10T06:29:27.887Z,23.20
2018-09-10T06:30:27.854Z,23.60
2018-09-10T06:31:27.821Z,23.90
2018-09-10T06:32:27.810Z,22.70
2018-09-10T06:33:27.778Z,24.50
2018-09-10T06:34:27.749Z,21.90
2018-09-10T06:35:27.739Z,23.70
2018-09-10T06:36:27.711Z,20.90
2018-09-10T06:37:27.683Z,23.90
2018-09-10T06:38:27.668Z,19.40
2018-09-10T06:39:27.635Z,21.90
2018-09-10T06:40:27.609Z,20.90
2018-09-10T06:41:27.581Z,25.10
2018-09-10T06:42:27.551Z,26.00
2018-09-10T06:43:27.537Z,24.20
2018-09-10T06:44:27.516Z,26.00
2018-09-10T06:45:27.478Z,25.80
2018-09-10T06:46:27.467Z,20.20
2018-09-10T06:47:27.426Z,21.70
2018-09-10T06:48:27.402Z,22.00
2018-09-10T06:49:27.377Z,24.70
2018-09-10T06:50:27.372Z,27.90
2018-09-10T06:51:27.345Z,20.10
2018-09-10T06:52:27.316Z,23.00
2018-09-10T06:53:27.301Z,21.20
2018-09-10T06:54:27.273Z,22.60
2018-09-10T06:55:27.243Z,26.00
2018-09-10T06:56:27.205Z,24.00
2018-09-10T06:57:27.196Z,24.10
2018-09-10T06:58:27.174Z,21.20
2018-09-10T06:59:27.144Z,23.00
2018-09-10T07:00:27.128Z,23.70
2018-09-10T07:01:27.097Z,23.80
2018-09-10T07:02:27.073Z,25.20
2018-09-10T07:03:27.046Z,23.50
2018-09-10T07:04:27.022Z,23.10
2018-09-10T07:05:26.997Z,22.80
2018-09-10T07:06:27.026Z,24.00
2018-09-10T07:07:26.946Z,23.30
2018-09-10T07:08:26.915Z,26.40
2018-09-10T07:09:26.901Z,25.90
2018-09-10T07:10:26.873Z,23.20
2018-09-10T07:11:26.831Z,25.70
2018-09-10T07:12:26.819Z,25.80
2018-09-10T07:13:26.789Z,22.50
2018-09-10T07:14:26.760Z,25.50
2018-09-10T07:15:26.735Z,25.70
2018-09-10T07:16:26.721Z,22.00
2018-09-10T07:17:26.702Z,22.10
2018-09-10T07:18:26.681Z,24.90
2018-09-10T07:19:26.652Z,26.40
2018-09-10T07:20:26.629Z,24.40
2018-09-10T07:21:26.597Z,24.60
2018-09-10T07:22:26.583Z,25.00
2018-09-10T07:23:26.643Z,24.20
2018-09-10T07:24:26.510Z,24.50
2018-09-10T07:25:26.490Z,24.90
2018-09-10T07:26:26.481Z,25.20
2018-09-10T07:27:26.455Z,29.60
2018-09-10T07:28:26.426Z,29.10
2018-09-10T07:29:26.403Z,26.10
2018-09-10T07:30:26.377Z,26.10
2018-09-10T07:31:26.336Z,26.80
2018-09-10T07:32:26.315Z,27.30
2018-09-10T07:33:26.302Z,24.40
2018-09-10T07:34:26.310Z,25.40
2018-09-10T07:35:26.251Z,27.20
2018-09-10T07:36:26.231Z,30.80
2018-09-10T07:37:26.204Z,27.20
2018-09-10T07:38:26.181Z,26.10
2018-09-10T07:39:26.157Z,27.30
2018-09-10T07:40:26.129Z,30.00
2018-09-10T07:41:26.104Z,32.50
2018-09-10T07:42:26.066Z,27.80
2018-09-10T07:43:26.076Z,29.80
2018-09-10T07:44:26.030Z,31.00
2018-09-10T07:45:26.005Z,29.20
2018-09-10T07:46:25.980Z,31.10
2018-09-10T07:47:25.953Z,33.00
2018-09-10T07:48:25.936Z,36.00
2018-09-10T07:49:25.902Z,37.80
2018-09-10T07:50:25.871Z,35.80
2018-09-10T07:51:25.844Z,34.00
2018-09-10T07:52:25.812Z,34.20
2018-09-10T07:53:25.789Z,37.80
2018-09-10T07:54:25.835Z,38.40
2018-09-10T07:55:25.754Z,34.50
2018-09-10T07:56:25.735Z,36.70
2018-09-10T07:57:25.705Z,31.80
2018-09-10T07:58:25.681Z,38.50
2018-09-10T07:59:25.647Z,35.20
2018-09-10T08:00:25.640Z,34.10
2018-09-10T08:01:25.614Z,40.80
2018-09-10T08:02:25.587Z,42.20
2018-09-10T08:03:25.565Z,37.40
2018-09-10T08:04:25.534Z,39.40
2018-09-10T08:05:25.512Z,36.00
2018-09-10T08:06:25.488Z,37.70
2018-09-10T08:07:25.457Z,37.70
2018-09-10T08:08:25.433Z,39.10
2018-09-10T08:09:25.501Z,40.70
2018-09-10T08:10:25.375Z,38.20
2018-09-10T08:11:25.357Z,36.00
2018-09-10T08:12:25.335Z,37.80
2018-09-10T08:13:25.310Z,33.70
2018-09-10T08:14:25.287Z,36.20
2018-09-10T08:15:25.257Z,35.70
2018-09-10T08:16:25.288Z,34.30
2018-09-10T08:17:25.210Z,41.10
2018-09-10T08:18:25.188Z,34.50
2018-09-10T08:19:25.160Z,36.40
2018-09-10T08:20:25.133Z,35.00
2018-09-10T08:21:25.109Z,40.80
2018-09-10T08:22:25.087Z,41.40
2018-09-10T08:23:25.149Z,33.80
2018-09-10T08:24:25.117Z,41.70
2018-09-10T08:25:25.014Z,30.60
2018-09-10T08:26:24.985Z,32.80
2018-09-10T08:27:24.960Z,31.20
2018-09-10T08:28:24.938Z,33.30
2018-09-10T08:29:24.901Z,29.00
2018-09-10T08:30:24.938Z,28.70
2018-09-10T08:31:24.896Z,28.50
2018-09-10T08:32:24.835Z,33.20
2018-09-10T08:33:24.817Z,27.90
2018-09-10T08:34:24.792Z,29.10
2018-09-10T08:35:24.754Z,30.00
2018-09-10T08:36:24.726Z,25.80
2018-09-10T08:37:24.703Z,24.60
2018-09-10T08:38:24.672Z,24.30
2018-09-10T08:39:24.670Z,22.60
2018-09-10T08:40:24.648Z,25.50
2018-09-10T08:41:24.620Z,25.90
2018-09-10T08:42:24.588Z,23.00
2018-09-10T08:43:24.571Z,25.00
2018-09-10T08:44:24.545Z,21.60
2018-09-10T08:45:24.508Z,19.90
2018-09-10T08:46:24.498Z,25.40
2018-09-10T08:47:24.484Z,18.60
2018-09-10T08:48:24.558Z,23.90
2018-09-10T08:49:24.428Z,23.50
2018-09-10T08:50:24.401Z,21.00
2018-09-10T08:51:24.369Z,20.30
2018-09-10T08:52:24.351Z,26.40
2018-09-10T08:53:24.320Z,22.10
2018-09-10T08:54:24.354Z,23.30
2018-09-10T08:55:24.416Z,23.50
2018-09-10T08:56:24.285Z,22.40
2018-09-10T08:57:24.212Z,21.40
2018-09-10T08:58:24.201Z,21.00
2018-09-10T08:59:24.179Z,22.40
2018-09-10T09:00:24.177Z,23.20
2018-09-10T09:01:24.128Z,23.50
2018-09-10T09:02:24.140Z,24.20
2018-09-10T09:03:24.064Z,22.60
2018-09-10T09:04:24.057Z,26.40
2018-09-10T09:05:24.028Z,22.30
2018-09-10T09:06:24.073Z,24.40
2018-09-10T09:07:23.981Z,21.30
2018-09-10T09:08:23.955Z,23.80
2018-09-10T09:09:23.934Z,26.20
2018-09-10T09:10:23.907Z,24.80
2018-09-10T09:11:23.885Z,24.40
2018-09-10T09:12:23.860Z,29.10
2018-09-10T09:13:23.836Z,27.40
2018-09-10T09:14:23.800Z,24.10
2018-09-10T09:15:23.784Z,26.90
2018-09-10T09:16:23.757Z,28.90
2018-09-10T09:17:23.782Z,24.70
2018-09-10T09:18:23.802Z,22.20
2018-09-10T09:19:23.677Z,24.70
2018-09-10T09:20:23.664Z,22.60
2018-09-10T09:21:23.640Z,24.50
2018-09-10T09:22:23.617Z,24.30
2018-09-10T09:23:23.615Z,25.70
2018-09-10T09:24:23.567Z,25.30
2018-09-10T09:25:23.545Z,23.10
2018-09-10T09:26:23.521Z,22.20
2018-09-10T09:27:23.500Z,22.20
2018-09-10T09:28:23.873Z,28.30
2018-09-10T09:29:23.455Z,21.70
2018-09-10T09:30:23.510Z,25.80
2018-09-10T09:31:23.448Z,22.60
2018-09-10T09:32:23.373Z,22.40
2018-09-10T09:33:23.347Z,24.80
2018-09-10T09:34:23.309Z,24.30
2018-09-10T09:35:23.299Z,26.90
2018-09-10T09:36:23.421Z,26.10
2018-09-10T09:37:23.235Z,22.60
2018-09-10T09:38:23.224Z,21.40
2018-09-10T09:39:23.196Z,23.10
2018-09-10T09:40:23.167Z,24.30
2018-09-10T09:41:23.143Z,22.90
2018-09-10T09:42:23.134Z,23.90
2018-09-10T09:43:23.145Z,20.70
2018-09-10T09:44:23.071Z,23.70
2018-09-10T09:45:23.055Z,24.30
2018-09-10T09:46:23.037Z,23.70
2018-09-10T09:47:23.014Z,22.60
2018-09-10T09:48:22.987Z,25.40
2018-09-10T09:49:22.951Z,26.00
2018-09-10T09:50:22.939Z,20.60
2018-09-10T09:51:22.919Z,22.50
2018-09-10T09:52:22.903Z,19.40
2018-09-10T09:53:22.871Z,24.10
2018-09-10T09:54:22.852Z,22.60
2018-09-10T09:55:22.830Z,21.50
2018-09-10T09:56:22.808Z,23.50
2018-09-10T09:57:22.782Z,19.40
2018-09-10T09:58:22.761Z,21.20
2018-09-10T09:59:22.734Z,22.90
2018-09-10T10:00:22.712Z,24.10
2018-09-10T10:01:22.687Z,19.70
2018-09-10T10:02:22.665Z,22.20
2018-09-10T10:03:22.628Z,17.50
2018-09-10T10:04:22.607Z,18.80
2018-09-10T10:05:22.581Z,22.70
2018-09-10T10:06:22.575Z,20.30
2018-09-10T10:07:22.555Z,21.10
2018-09-10T10:08:22.532Z,19.90
2018-09-10T10:09:22.510Z,20.50
2018-09-10T10:10:22.543Z,18.10
2018-09-10T10:11:22.538Z,17.00
2018-09-10T10:12:22.608Z,19.00
2018-09-10T10:13:22.400Z,17.50
2018-09-10T10:14:22.397Z,24.00
2018-09-10T10:15:22.375Z,18.40
2018-09-10T10:16:22.410Z,20.30
2018-09-10T10:17:22.329Z,16.30
2018-09-10T10:18:22.315Z,17.00
2018-09-10T10:19:22.291Z,18.60
2018-09-10T10:20:22.268Z,15.30
2018-09-10T10:21:22.245Z,16.80
2018-09-10T10:22:22.220Z,19.70
2018-09-10T10:23:22.196Z,14.50
2018-09-10T10:24:22.181Z,18.40
2018-09-10T10:25:22.156Z,18.00
2018-09-10T10:26:22.138Z,17.90
2018-09-10T10:27:22.108Z,14.70
2018-09-10T10:28:22.138Z,18.70
2018-09-10T10:29:22.057Z,15.50
2018-09-10T10:30:22.051Z,19.50
2018-09-10T10:31:22.009Z,17.30
2018-09-10T10:32:21.994Z,17.40
2018-09-10T10:33:21.980Z,17.70
2018-09-10T10:34:21.946Z,20.20
2018-09-10T10:35:21.940Z,17.80
2018-09-10T10:36:21.922Z,18.00
2018-09-10T10:37:21.900Z,14.70
2018-09-10T10:38:21.875Z,19.10
2018-09-10T10:39:21.998Z,16.90
2018-09-10T10:40:21.817Z,18.10
2018-09-10T10:41:21.812Z,17.80
2018-09-10T10:42:21.786Z,15.80
2018-09-10T10:43:21.767Z,15.70
2018-09-10T10:44:21.749Z,15.70
2018-09-10T10:45:21.723Z,18.60
2018-09-10T10:46:21.698Z,16.30
2018-09-10T10:47:21.720Z,16.40
2018-09-10T10:48:21.661Z,16.90
2018-09-10T10:49:21.620Z,19.40
2018-09-10T10:50:21.609Z,17.20
2018-09-10T10:51:21.683Z,19.70
2018-09-10T10:52:21.550Z,16.80
2018-09-10T10:53:21.550Z,18.50
2018-09-10T10:54:21.519Z,20.20
2018-09-10T10:55:21.501Z,16.50
2018-09-10T10:56:21.473Z,15.90
2018-09-10T10:57:21.454Z,17.40
2018-09-10T10:58:21.413Z,16.30
2018-09-10T10:59:21.398Z,16.10
2018-09-10T11:00:21.390Z,16.10
2018-09-10T11:01:21.370Z,17.70
2018-09-10T11:02:21.348Z,17.10
2018-09-10T11:03:21.322Z,17.00
2018-09-10T11:04:21.357Z,17.10
2018-09-10T11:05:21.278Z,15.70
2018-09-10T11:06:21.267Z,16.50
2018-09-10T11:07:21.234Z,17.10
2018-09-10T11:08:21.214Z,16.20
2018-09-10T11:09:21.192Z,15.90
2018-09-10T11:10:21.161Z,14.20
2018-09-10T11:11:21.155Z,16.40
2018-09-10T11:12:21.128Z,17.00
2018-09-10T11:13:21.107Z,16.70
2018-09-10T11:14:21.078Z,15.60
2018-09-10T11:15:21.068Z,19.00
2018-09-10T11:16:21.055Z,19.50
2018-09-10T11:17:21.029Z,15.10
2018-09-10T11:18:20.997Z,17.20
2018-09-10T11:19:20.988Z,17.80
2018-09-10T11:20:20.964Z,24.40
2018-09-10T11:21:20.943Z,18.10
2018-09-10T11:22:20.954Z,18.70
2018-09-10T11:23:20.907Z,17.30
2018-09-10T11:24:20.890Z,18.50
2018-09-10T11:25:20.874Z,21.00
2018-09-10T11:26:20.854Z,19.00
2018-09-10T11:27:20.831Z,18.20
2018-09-10T11:28:20.801Z,18.70
2018-09-10T11:29:20.790Z,19.80
2018-09-10T11:30:20.767Z,19.20
2018-09-10T11:31:20.751Z,18.20
2018-09-10T11:32:20.729Z,20.20
2018-09-10T11:33:20.687Z,19.60
2018-09-10T11:34:20.685Z,19.00
2018-09-10T11:35:20.661Z,20.00
2018-09-10T11:36:20.634Z,16.10
2018-09-10T11:37:20.620Z,18.60
2018-09-10T11:38:20.595Z,19.70
2018-09-10T11:39:20.587Z,21.40
2018-09-10T11:40:20.645Z,19.50
2018-09-10T11:41:20.546Z,16.80
2018-09-10T11:42:20.525Z,20.50
2018-09-10T11:43:20.507Z,20.20
2018-09-10T11:44:20.473Z,18.90
2018-09-10T11:45:20.467Z,21.20
2018-09-10T11:46:20.449Z,19.50
2018-09-10T11:47:20.431Z,18.70
2018-09-10T11:48:20.411Z,22.80
2018-09-10T11:49:20.386Z,18.90
2018-09-10T11:50:20.370Z,17.90
2018-09-10T11:51:20.342Z,22.50
2018-09-10T11:52:20.360Z,19.30
2018-09-10T11:53:20.297Z,20.20
2018-09-10T11:54:20.281Z,16.60
2018-09-10T11:55:20.254Z,18.70
2018-09-10T11:56:20.241Z,18.50
2018-09-10T11:57:20.220Z,18.10
2018-09-10T11:58:20.193Z,19.50
2018-09-10T11:59:20.184Z,18.40
2018-09-10T12:00:20.154Z,17.40
2018-09-10T12:01:20.135Z,18.80
2018-09-10T12:02:20.115Z,17.30
2018-09-10T12:03:20.096Z,20.20
2018-09-10T12:04:20.073Z,19.00
2018-09-10T12:05:20.058Z,17.70
2018-09-10T12:06:20.037Z,18.20
2018-09-10T12:07:20.024Z,19.30
2018-09-10T12:08:19.999Z,18.60
2018-09-10T12:09:19.982Z,16.00
2018-09-10T12:10:19.957Z,15.80
2018-09-10T12:11:19.934Z,16.00
2018-09-10T12:12:19.916Z,17.00
2018-09-10T12:13:19.880Z,17.40
2018-09-10T12:14:19.877Z,20.10
2018-09-10T12:15:19.862Z,17.30
2018-09-10T12:16:19.844Z,15.20
2018-09-10T12:17:19.807Z,16.90
2018-09-10T12:18:19.804Z,16.80
2018-09-10T12:19:19.773Z,16.10
2018-09-10T12:20:19.740Z,15.40
2018-09-10T12:21:19.753Z,18.00
2018-09-10T12:22:19.702Z,13.70
2018-09-10T12:23:19.689Z,16.20
2018-09-10T12:24:19.674Z,16.70
2018-09-10T12:25:19.658Z,16.50
2018-09-10T12:26:19.639Z,17.20
2018-09-10T12:27:19.617Z,16.20
2018-09-10T12:28:19.599Z,13.90
2018-09-10T12:29:19.590Z,13.30
2018-09-10T12:30:19.561Z,14.20
2018-09-10T12:31:19.544Z,17.90
2018-09-10T12:32:19.551Z,16.20
2018-09-10T12:33:19.510Z,15.10
2018-09-10T12:34:19.479Z,18.40
2018-09-10T12:35:19.461Z,16.90
2018-09-10T12:36:19.444Z,18.70
2018-09-10T12:37:19.414Z,17.60
2018-09-10T12:38:19.388Z,17.30
2018-09-10T12:39:19.442Z,16.80
2018-09-10T12:40:19.365Z,16.80
2018-09-10T12:41:19.341Z,16.60
2018-09-10T12:42:19.306Z,16.80
2018-09-10T12:43:19.307Z,17.40
2018-09-10T12:44:19.285Z,15.80
2018-09-10T12:45:19.260Z,14.40
2018-09-10T12:46:19.291Z,14.20
2018-09-10T12:47:19.207Z,16.30
2018-09-10T12:48:19.202Z,15.60
2018-09-10T12:49:19.178Z,14.00
2018-09-10T12:50:19.166Z,13.60
2018-09-10T12:51:19.141Z,15.00
2018-09-10T12:52:19.120Z,14.70